sensor_id;sensor_type;location;lat;lon;timestamp;P1;durP1;ratioP1;P2;durP2;ratioP2
33403;SDS011;19751;40.274;18.268;2023-07-22T00:00:29;15.68;;;5.80;;
33403;SDS011;19751;40.274;18.268;2023-07-22T00:02:55;14.32;;;5.50;;
33403;SDS011;19751;40.274;18.268;2023-07-22T00:05:20;14.30;;;4.65;;
33403;SDS011;19751;40.274;18.268;2023-07-22T00:07:51;15.43;;;5.63;;
33403;SDS011;19751;40.274;18.268;2023-07-22T00:10:16;17.70;;;5.32;;
33403;SDS011;19751;40.274;18.268;2023-07-22T00:12:42;10.90;;;4.88;;
33403;SDS011;19751;40.274;18.268;2023-07-22T00:15:08;16.13;;;5.50;;
33403;SDS011;19751;40.274;18.268;2023-07-22T00:17:38;23.58;;;6.75;;
33403;SDS011;19751;40.274;18.268;2023-07-22T00:20:05;17.75;;;4.80;;
33403;SDS011;19751;40.274;18.268;2023-07-22T00:22:32;23.58;;;6.18;;
33403;SDS011;19751;40.274;18.268;2023-07-22T00:24:57;12.32;;;5.05;;
33403;SDS011;19751;40.274;18.268;2023-07-22T00:27:26;22.98;;;5.95;;
33403;SDS011;19751;40.274;18.268;2023-07-22T00:29:51;16.13;;;5.90;;
33403;SDS011;19751;40.274;18.268;2023-07-22T00:32:17;20.20;;;7.90;;
33403;SDS011;19751;40.274;18.268;2023-07-22T00:34:42;15.77;;;5.72;;
33403;SDS011;19751;40.274;18.268;2023-07-22T00:37:08;13.70;;;5.07;;
33403;SDS011;19751;40.274;18.268;2023-07-22T00:39:33;19.33;;;6.57;;
33403;SDS011;19751;40.274;18.268;2023-07-22T00:41:59;14.43;;;5.60;;
33403;SDS011;19751;40.274;18.268;2023-07-22T00:44:25;14.70;;;5.63;;
33403;SDS011;19751;40.274;18.268;2023-07-22T00:46:53;13.45;;;5.43;;
33403;SDS011;19751;40.274;18.268;2023-07-22T00:49:21;14.32;;;5.70;;
33403;SDS011;19751;40.274;18.268;2023-07-22T00:51:48;11.45;;;5.80;;
33403;SDS011;19751;40.274;18.268;2023-07-22T00:54:14;18.33;;;6.07;;
33403;SDS011;19751;40.274;18.268;2023-07-22T00:56:40;18.17;;;6.22;;
33403;SDS011;19751;40.274;18.268;2023-07-22T00:59:06;15.07;;;6.68;;
33403;SDS011;19751;40.274;18.268;2023-07-22T01:01:35;18.60;;;7.30;;
33403;SDS011;19751;40.274;18.268;2023-07-22T01:04:01;16.05;;;5.57;;
33403;SDS011;19751;40.274;18.268;2023-07-22T01:06:31;21.33;;;6.25;;
33403;SDS011;19751;40.274;18.268;2023-07-22T01:08:57;13.77;;;5.40;;
33403;SDS011;19751;40.274;18.268;2023-07-22T01:11:23;16.35;;;5.50;;
33403;SDS011;19751;40.274;18.268;2023-07-22T01:13:51;12.55;;;5.35;;
33403;SDS011;19751;40.274;18.268;2023-07-22T01:16:17;14.63;;;5.20;;
33403;SDS011;19751;40.274;18.268;2023-07-22T01:18:43;20.92;;;5.45;;
33403;SDS011;19751;40.274;18.268;2023-07-22T01:21:08;13.52;;;5.82;;
33403;SDS011;19751;40.274;18.268;2023-07-22T01:23:35;14.70;;;6.00;;
33403;SDS011;19751;40.274;18.268;2023-07-22T01:26:01;11.80;;;5.57;;
33403;SDS011;19751;40.274;18.268;2023-07-22T01:28:28;19.15;;;5.85;;
33403;SDS011;19751;40.274;18.268;2023-07-22T01:30:54;12.02;;;5.78;;
33403;SDS011;19751;40.274;18.268;2023-07-22T01:33:20;15.48;;;5.75;;
33403;SDS011;19751;40.274;18.268;2023-07-22T01:35:45;13.73;;;5.28;;
33403;SDS011;19751;40.274;18.268;2023-07-22T01:38:11;11.43;;;5.10;;
33403;SDS011;19751;40.274;18.268;2023-07-22T01:40:37;17.38;;;6.65;;
33403;SDS011;19751;40.274;18.268;2023-07-22T01:43:03;12.65;;;5.50;;
33403;SDS011;19751;40.274;18.268;2023-07-22T01:45:28;12.05;;;5.93;;
33403;SDS011;19751;40.274;18.268;2023-07-22T01:47:54;18.33;;;6.10;;
33403;SDS011;19751;40.274;18.268;2023-07-22T01:50:20;18.42;;;5.93;;
33403;SDS011;19751;40.274;18.268;2023-07-22T01:52:45;12.43;;;5.45;;
33403;SDS011;19751;40.274;18.268;2023-07-22T01:55:14;12.05;;;5.75;;
33403;SDS011;19751;40.274;18.268;2023-07-22T01:57:39;18.40;;;5.63;;
33403;SDS011;19751;40.274;18.268;2023-07-22T02:00:06;13.85;;;4.93;;
33403;SDS011;19751;40.274;18.268;2023-07-22T02:02:33;19.40;;;6.20;;
33403;SDS011;19751;40.274;18.268;2023-07-22T02:04:59;18.00;;;6.60;;
33403;SDS011;19751;40.274;18.268;2023-07-22T02:07:25;16.33;;;6.65;;
33403;SDS011;19751;40.274;18.268;2023-07-22T02:09:51;18.20;;;5.82;;
33403;SDS011;19751;40.274;18.268;2023-07-22T02:12:17;20.35;;;6.75;;
33403;SDS011;19751;40.274;18.268;2023-07-22T02:14:43;16.38;;;5.50;;
33403;SDS011;19751;40.274;18.268;2023-07-22T02:17:09;19.40;;;7.00;;
33403;SDS011;19751;40.274;18.268;2023-07-22T02:19:35;15.07;;;6.55;;
33403;SDS011;19751;40.274;18.268;2023-07-22T02:22:02;11.05;;;5.25;;
33403;SDS011;19751;40.274;18.268;2023-07-22T02:24:29;10.82;;;4.80;;
33403;SDS011;19751;40.274;18.268;2023-07-22T02:26:55;12.57;;;5.93;;
33403;SDS011;19751;40.274;18.268;2023-07-22T02:29:20;16.17;;;6.32;;
33403;SDS011;19751;40.274;18.268;2023-07-22T02:31:46;15.93;;;6.05;;
33403;SDS011;19751;40.274;18.268;2023-07-22T02:34:12;18.42;;;5.55;;
33403;SDS011;19751;40.274;18.268;2023-07-22T02:36:37;19.33;;;5.68;;
33403;SDS011;19751;40.274;18.268;2023-07-22T02:39:03;16.00;;;6.65;;
33403;SDS011;19751;40.274;18.268;2023-07-22T02:41:29;16.10;;;5.97;;
33403;SDS011;19751;40.274;18.268;2023-07-22T02:43:54;14.63;;;6.85;;
33403;SDS011;19751;40.274;18.268;2023-07-22T02:46:20;18.35;;;5.90;;
33403;SDS011;19751;40.274;18.268;2023-07-22T02:48:45;18.08;;;5.82;;
33403;SDS011;19751;40.274;18.268;2023-07-22T02:51:11;18.33;;;7.28;;
33403;SDS011;19751;40.274;18.268;2023-07-22T02:53:37;17.25;;;7.00;;
33403;SDS011;19751;40.274;18.268;2023-07-22T02:56:03;15.18;;;7.22;;
33403;SDS011;19751;40.274;18.268;2023-07-22T02:58:32;16.30;;;6.03;;
33403;SDS011;19751;40.274;18.268;2023-07-22T03:00:59;9.77;;;5.30;;
33403;SDS011;19751;40.274;18.268;2023-07-22T03:03:25;16.90;;;5.80;;
33403;SDS011;19751;40.274;18.268;2023-07-22T03:05:51;17.10;;;7.40;;
33403;SDS011;19751;40.274;18.268;2023-07-22T03:08:17;15.15;;;5.85;;
33403;SDS011;19751;40.274;18.268;2023-07-22T03:10:44;12.38;;;5.65;;
33403;SDS011;19751;40.274;18.268;2023-07-22T03:13:14;18.05;;;6.72;;
33403;SDS011;19751;40.274;18.268;2023-07-22T03:15:40;17.40;;;5.45;;
33403;SDS011;19751;40.274;18.268;2023-07-22T03:18:06;15.15;;;6.63;;
33403;SDS011;19751;40.274;18.268;2023-07-22T03:20:32;13.07;;;6.63;;
33403;SDS011;19751;40.274;18.268;2023-07-22T03:22:57;15.70;;;6.03;;
33403;SDS011;19751;40.274;18.268;2023-07-22T03:25:24;14.88;;;6.20;;
33403;SDS011;19751;40.274;18.268;2023-07-22T03:27:50;16.48;;;6.13;;
33403;SDS011;19751;40.274;18.268;2023-07-22T03:30:16;19.70;;;5.65;;
33403;SDS011;19751;40.274;18.268;2023-07-22T03:32:46;12.43;;;5.70;;
33403;SDS011;19751;40.274;18.268;2023-07-22T03:35:16;21.65;;;6.80;;
33403;SDS011;19751;40.274;18.268;2023-07-22T03:37:42;15.05;;;6.05;;
33403;SDS011;19751;40.274;18.268;2023-07-22T03:40:08;12.05;;;5.45;;
33403;SDS011;19751;40.274;18.268;2023-07-22T03:42:52;15.93;;;7.10;;
33403;SDS011;19751;40.274;18.268;2023-07-22T03:45:18;13.15;;;6.22;;
33403;SDS011;19751;40.274;18.268;2023-07-22T03:47:45;11.50;;;6.30;;
33403;SDS011;19751;40.274;18.268;2023-07-22T03:50:12;17.90;;;5.55;;
33403;SDS011;19751;40.274;18.268;2023-07-22T03:52:38;16.05;;;6.75;;
33403;SDS011;19751;40.274;18.268;2023-07-22T03:55:04;13.07;;;5.78;;
33403;SDS011;19751;40.274;18.268;2023-07-22T03:57:30;17.13;;;6.50;;
33403;SDS011;19751;40.274;18.268;2023-07-22T03:59:56;16.02;;;6.00;;
33403;SDS011;19751;40.274;18.268;2023-07-22T04:02:23;15.25;;;6.10;;
33403;SDS011;19751;40.274;18.268;2023-07-22T04:04:50;15.18;;;6.03;;
33403;SDS011;19751;40.274;18.268;2023-07-22T04:07:16;16.40;;;6.78;;
33403;SDS011;19751;40.274;18.268;2023-07-22T04:09:42;17.00;;;7.60;;
33403;SDS011;19751;40.274;18.268;2023-07-22T04:12:07;16.10;;;6.35;;
33403;SDS011;19751;40.274;18.268;2023-07-22T04:14:33;23.55;;;7.15;;
33403;SDS011;19751;40.274;18.268;2023-07-22T04:16:58;17.17;;;5.78;;
33403;SDS011;19751;40.274;18.268;2023-07-22T04:19:24;25.90;;;8.20;;
33403;SDS011;19751;40.274;18.268;2023-07-22T04:21:50;19.30;;;10.85;;
33403;SDS011;19751;40.274;18.268;2023-07-22T04:24:16;29.02;;;13.40;;
33403;SDS011;19751;40.274;18.268;2023-07-22T04:26:42;28.30;;;15.60;;
33403;SDS011;19751;40.274;18.268;2023-07-22T04:29:08;28.17;;;15.27;;
33403;SDS011;19751;40.274;18.268;2023-07-22T04:31:34;32.83;;;15.40;;
33403;SDS011;19751;40.274;18.268;2023-07-22T04:34:00;44.03;;;23.33;;
33403;SDS011;19751;40.274;18.268;2023-07-22T04:36:25;33.95;;;18.17;;
33403;SDS011;19751;40.274;18.268;2023-07-22T04:38:51;27.13;;;13.40;;
33403;SDS011;19751;40.274;18.268;2023-07-22T04:41:16;22.20;;;9.77;;
33403;SDS011;19751;40.274;18.268;2023-07-22T04:43:42;18.63;;;7.85;;
33403;SDS011;19751;40.274;18.268;2023-07-22T04:46:07;16.42;;;6.50;;
33403;SDS011;19751;40.274;18.268;2023-07-22T04:48:34;14.82;;;7.03;;
33403;SDS011;19751;40.274;18.268;2023-07-22T04:51:00;15.90;;;6.43;;
33403;SDS011;19751;40.274;18.268;2023-07-22T04:53:25;20.58;;;7.63;;
33403;SDS011;19751;40.274;18.268;2023-07-22T04:55:51;18.65;;;6.07;;
33403;SDS011;19751;40.274;18.268;2023-07-22T04:58:16;16.63;;;6.25;;
33403;SDS011;19751;40.274;18.268;2023-07-22T05:00:42;17.80;;;6.75;;
33403;SDS011;19751;40.274;18.268;2023-07-22T05:03:08;13.55;;;6.10;;
33403;SDS011;19751;40.274;18.268;2023-07-22T05:05:34;15.05;;;6.22;;
33403;SDS011;19751;40.274;18.268;2023-07-22T05:08:00;12.20;;;6.00;;
33403;SDS011;19751;40.274;18.268;2023-07-22T05:10:26;15.02;;;7.30;;
33403;SDS011;19751;40.274;18.268;2023-07-22T05:12:54;21.40;;;6.90;;
33403;SDS011;19751;40.274;18.268;2023-07-22T05:15:20;20.45;;;7.63;;
33403;SDS011;19751;40.274;18.268;2023-07-22T05:17:45;16.40;;;6.15;;
33403;SDS011;19751;40.274;18.268;2023-07-22T05:20:12;16.17;;;7.68;;
33403;SDS011;19751;40.274;18.268;2023-07-22T05:22:38;12.43;;;5.70;;
33403;SDS011;19751;40.274;18.268;2023-07-22T05:25:05;12.75;;;5.95;;
33403;SDS011;19751;40.274;18.268;2023-07-22T05:27:31;20.77;;;8.63;;
33403;SDS011;19751;40.274;18.268;2023-07-22T05:29:57;17.90;;;7.38;;
33403;SDS011;19751;40.274;18.268;2023-07-22T05:32:23;25.75;;;7.45;;
33403;SDS011;19751;40.274;18.268;2023-07-22T05:34:49;17.95;;;8.27;;
33403;SDS011;19751;40.274;18.268;2023-07-22T05:37:14;16.73;;;7.10;;
33403;SDS011;19751;40.274;18.268;2023-07-22T05:39:40;17.63;;;6.95;;
33403;SDS011;19751;40.274;18.268;2023-07-22T05:42:05;20.27;;;7.05;;
33403;SDS011;19751;40.274;18.268;2023-07-22T05:44:31;20.10;;;6.22;;
33403;SDS011;19751;40.274;18.268;2023-07-22T05:46:57;17.88;;;7.22;;
33403;SDS011;19751;40.274;18.268;2023-07-22T05:49:23;16.40;;;6.28;;
33403;SDS011;19751;40.274;18.268;2023-07-22T05:51:48;13.32;;;7.13;;
33403;SDS011;19751;40.274;18.268;2023-07-22T05:54:14;19.02;;;6.05;;
33403;SDS011;19751;40.274;18.268;2023-07-22T05:56:39;14.95;;;5.93;;
33403;SDS011;19751;40.274;18.268;2023-07-22T05:59:06;22.38;;;8.07;;
33403;SDS011;19751;40.274;18.268;2023-07-22T06:01:32;16.13;;;6.57;;
33403;SDS011;19751;40.274;18.268;2023-07-22T06:03:57;23.73;;;6.75;;
33403;SDS011;19751;40.274;18.268;2023-07-22T06:06:23;15.70;;;6.05;;
33403;SDS011;19751;40.274;18.268;2023-07-22T06:08:49;31.45;;;8.15;;
33403;SDS011;19751;40.274;18.268;2023-07-22T06:11:14;20.52;;;6.60;;
33403;SDS011;19751;40.274;18.268;2023-07-22T06:13:40;17.65;;;6.05;;
33403;SDS011;19751;40.274;18.268;2023-07-22T06:16:06;18.75;;;6.25;;
33403;SDS011;19751;40.274;18.268;2023-07-22T06:18:32;17.50;;;6.10;;
33403;SDS011;19751;40.274;18.268;2023-07-22T06:20:58;22.30;;;6.07;;
33403;SDS011;19751;40.274;18.268;2023-07-22T06:23:24;22.02;;;7.65;;
33403;SDS011;19751;40.274;18.268;2023-07-22T06:25:49;15.38;;;5.82;;
33403;SDS011;19751;40.274;18.268;2023-07-22T06:28:15;22.02;;;6.63;;
33403;SDS011;19751;40.274;18.268;2023-07-22T06:30:41;22.02;;;6.80;;
33403;SDS011;19751;40.274;18.268;2023-07-22T06:33:06;24.55;;;7.90;;
33403;SDS011;19751;40.274;18.268;2023-07-22T06:35:32;22.63;;;8.75;;
33403;SDS011;19751;40.274;18.268;2023-07-22T06:37:57;14.68;;;6.47;;
33403;SDS011;19751;40.274;18.268;2023-07-22T06:40:24;21.23;;;7.47;;
33403;SDS011;19751;40.274;18.268;2023-07-22T06:42:50;18.85;;;8.00;;
33403;SDS011;19751;40.274;18.268;2023-07-22T06:45:16;20.98;;;7.25;;
33403;SDS011;19751;40.274;18.268;2023-07-22T06:47:42;22.98;;;7.13;;
33403;SDS011;19751;40.274;18.268;2023-07-22T06:50:09;19.67;;;6.25;;
33403;SDS011;19751;40.274;18.268;2023-07-22T06:52:34;19.20;;;6.40;;
33403;SDS011;19751;40.274;18.268;2023-07-22T06:55:00;16.35;;;7.57;;
33403;SDS011;19751;40.274;18.268;2023-07-22T06:57:26;17.42;;;6.43;;
33403;SDS011;19751;40.274;18.268;2023-07-22T06:59:55;21.23;;;6.10;;
33403;SDS011;19751;40.274;18.268;2023-07-22T07:02:21;14.93;;;5.80;;
33403;SDS011;19751;40.274;18.268;2023-07-22T07:04:47;19.88;;;5.88;;
33403;SDS011;19751;40.274;18.268;2023-07-22T07:07:13;18.88;;;5.45;;
33403;SDS011;19751;40.274;18.268;2023-07-22T07:09:39;14.70;;;6.55;;
33403;SDS011;19751;40.274;18.268;2023-07-22T07:12:05;14.15;;;6.25;;
33403;SDS011;19751;40.274;18.268;2023-07-22T07:14:32;12.52;;;6.30;;
33403;SDS011;19751;40.274;18.268;2023-07-22T07:16:58;22.20;;;9.15;;
33403;SDS011;19751;40.274;18.268;2023-07-22T07:19:24;22.98;;;8.25;;
33403;SDS011;19751;40.274;18.268;2023-07-22T07:21:49;17.95;;;6.07;;
33403;SDS011;19751;40.274;18.268;2023-07-22T07:24:15;17.48;;;6.03;;
33403;SDS011;19751;40.274;18.268;2023-07-22T07:26:41;14.68;;;5.63;;
33403;SDS011;19751;40.274;18.268;2023-07-22T07:29:07;9.23;;;4.78;;
33403;SDS011;19751;40.274;18.268;2023-07-22T07:31:32;15.07;;;4.72;;
33403;SDS011;19751;40.274;18.268;2023-07-22T07:33:58;16.38;;;5.63;;
33403;SDS011;19751;40.274;18.268;2023-07-22T07:36:24;19.02;;;5.22;;
33403;SDS011;19751;40.274;18.268;2023-07-22T07:38:49;15.38;;;5.40;;
33403;SDS011;19751;40.274;18.268;2023-07-22T07:41:15;11.35;;;4.93;;
33403;SDS011;19751;40.274;18.268;2023-07-22T07:43:40;19.25;;;5.80;;
33403;SDS011;19751;40.274;18.268;2023-07-22T07:46:28;14.30;;;6.03;;
33403;SDS011;19751;40.274;18.268;2023-07-22T07:48:57;15.40;;;5.47;;
33403;SDS011;19751;40.274;18.268;2023-07-22T07:51:26;18.58;;;5.22;;
33403;SDS011;19751;40.274;18.268;2023-07-22T07:53:52;15.18;;;5.32;;
33403;SDS011;19751;40.274;18.268;2023-07-22T07:56:19;26.70;;;6.60;;
33403;SDS011;19751;40.274;18.268;2023-07-22T07:58:46;18.95;;;4.97;;
33403;SDS011;19751;40.274;18.268;2023-07-22T08:01:13;20.10;;;5.82;;
33403;SDS011;19751;40.274;18.268;2023-07-22T08:03:39;19.55;;;5.60;;
33403;SDS011;19751;40.274;18.268;2023-07-22T08:06:06;25.35;;;7.43;;
33403;SDS011;19751;40.274;18.268;2023-07-22T08:08:33;16.38;;;4.85;;
33403;SDS011;19751;40.274;18.268;2023-07-22T08:11:03;13.52;;;6.53;;
33403;SDS011;19751;40.274;18.268;2023-07-22T08:13:30;20.08;;;6.82;;
33403;SDS011;19751;40.274;18.268;2023-07-22T08:15:57;24.83;;;6.75;;
33403;SDS011;19751;40.274;18.268;2023-07-22T08:18:23;34.75;;;6.85;;
33403;SDS011;19751;40.274;18.268;2023-07-22T08:20:50;17.27;;;4.88;;
33403;SDS011;19751;40.274;18.268;2023-07-22T08:23:17;28.35;;;6.22;;
33403;SDS011;19751;40.274;18.268;2023-07-22T08:25:43;16.73;;;5.65;;
33403;SDS011;19751;40.274;18.268;2023-07-22T08:28:08;20.08;;;4.88;;
33403;SDS011;19751;40.274;18.268;2023-07-22T08:30:34;16.38;;;4.90;;
33403;SDS011;19751;40.274;18.268;2023-07-22T08:33:00;17.80;;;5.32;;
33403;SDS011;19751;40.274;18.268;2023-07-22T08:35:26;23.67;;;6.25;;
33403;SDS011;19751;40.274;18.268;2023-07-22T08:37:51;16.70;;;5.82;;
33403;SDS011;19751;40.274;18.268;2023-07-22T08:40:17;17.88;;;4.53;;
33403;SDS011;19751;40.274;18.268;2023-07-22T08:42:43;24.05;;;5.60;;
33403;SDS011;19751;40.274;18.268;2023-07-22T08:45:12;24.70;;;6.63;;
33403;SDS011;19751;40.274;18.268;2023-07-22T08:47:46;23.08;;;5.20;;
33403;SDS011;19751;40.274;18.268;2023-07-22T08:50:14;19.92;;;6.30;;
33403;SDS011;19751;40.274;18.268;2023-07-22T08:52:43;22.75;;;5.72;;
33403;SDS011;19751;40.274;18.268;2023-07-22T08:55:10;17.35;;;5.20;;
33403;SDS011;19751;40.274;18.268;2023-07-22T08:57:36;18.02;;;5.03;;
33403;SDS011;19751;40.274;18.268;2023-07-22T09:00:03;23.98;;;6.47;;
33403;SDS011;19751;40.274;18.268;2023-07-22T09:02:32;23.63;;;5.65;;
33403;SDS011;19751;40.274;18.268;2023-07-22T09:04:59;21.58;;;5.95;;
33403;SDS011;19751;40.274;18.268;2023-07-22T09:07:25;17.02;;;5.78;;
33403;SDS011;19751;40.274;18.268;2023-07-22T09:09:51;24.25;;;7.13;;
33403;SDS011;19751;40.274;18.268;2023-07-22T09:12:18;18.63;;;6.47;;
33403;SDS011;19751;40.274;18.268;2023-07-22T09:14:44;17.90;;;5.53;;
33403;SDS011;19751;40.274;18.268;2023-07-22T09:17:10;19.95;;;5.88;;
33403;SDS011;19751;40.274;18.268;2023-07-22T09:19:36;22.50;;;6.18;;
33403;SDS011;19751;40.274;18.268;2023-07-22T09:22:01;15.38;;;5.30;;
33403;SDS011;19751;40.274;18.268;2023-07-22T09:24:27;21.40;;;6.47;;
33403;SDS011;19751;40.274;18.268;2023-07-22T09:26:53;24.88;;;8.18;;
33403;SDS011;19751;40.274;18.268;2023-07-22T09:29:32;17.23;;;6.45;;
33403;SDS011;19751;40.274;18.268;2023-07-22T09:32:01;23.55;;;5.57;;
33403;SDS011;19751;40.274;18.268;2023-07-22T09:34:28;21.15;;;5.55;;
33403;SDS011;19751;40.274;18.268;2023-07-22T09:36:55;17.92;;;5.68;;
33403;SDS011;19751;40.274;18.268;2023-07-22T09:39:22;19.23;;;7.05;;
33403;SDS011;19751;40.274;18.268;2023-07-22T09:41:48;23.20;;;6.20;;
33403;SDS011;19751;40.274;18.268;2023-07-22T09:44:14;16.42;;;5.40;;
33403;SDS011;19751;40.274;18.268;2023-07-22T09:46:40;15.27;;;5.18;;
33403;SDS011;19751;40.274;18.268;2023-07-22T09:49:07;22.98;;;6.47;;
33403;SDS011;19751;40.274;18.268;2023-07-22T09:51:37;24.23;;;5.57;;
33403;SDS011;19751;40.274;18.268;2023-07-22T09:54:05;25.08;;;5.88;;
33403;SDS011;19751;40.274;18.268;2023-07-22T09:56:32;24.60;;;5.72;;
33403;SDS011;19751;40.274;18.268;2023-07-22T09:59:08;15.43;;;5.15;;
33403;SDS011;19751;40.274;18.268;2023-07-22T10:01:35;22.30;;;6.85;;
33403;SDS011;19751;40.274;18.268;2023-07-22T10:04:03;22.45;;;5.95;;
33403;SDS011;19751;40.274;18.268;2023-07-22T10:06:30;30.98;;;6.88;;
33403;SDS011;19751;40.274;18.268;2023-07-22T10:08:57;17.48;;;5.13;;
33403;SDS011;19751;40.274;18.268;2023-07-22T10:11:33;24.30;;;5.78;;
33403;SDS011;19751;40.274;18.268;2023-07-22T10:13:59;20.08;;;6.10;;
33403;SDS011;19751;40.274;18.268;2023-07-22T10:16:26;16.60;;;4.97;;
33403;SDS011;19751;40.274;18.268;2023-07-22T10:18:53;28.65;;;5.97;;
33403;SDS011;19751;40.274;18.268;2023-07-22T10:21:19;14.75;;;5.57;;
33403;SDS011;19751;40.274;18.268;2023-07-22T10:23:46;17.00;;;6.35;;
33403;SDS011;19751;40.274;18.268;2023-07-22T10:26:14;14.77;;;5.20;;
33403;SDS011;19751;40.274;18.268;2023-07-22T10:28:41;20.70;;;5.78;;
33403;SDS011;19751;40.274;18.268;2023-07-22T10:31:08;23.90;;;6.30;;
33403;SDS011;19751;40.274;18.268;2023-07-22T10:33:34;25.30;;;5.90;;
33403;SDS011;19751;40.274;18.268;2023-07-22T10:36:13;26.88;;;6.07;;
33403;SDS011;19751;40.274;18.268;2023-07-22T10:38:41;19.27;;;5.38;;
33403;SDS011;19751;40.274;18.268;2023-07-22T10:41:14;23.13;;;6.30;;
33403;SDS011;19751;40.274;18.268;2023-07-22T10:44:05;22.17;;;5.35;;
33403;SDS011;19751;40.274;18.268;2023-07-22T10:46:32;18.50;;;6.35;;
33403;SDS011;19751;40.274;18.268;2023-07-22T10:49:08;21.02;;;5.13;;
33403;SDS011;19751;40.274;18.268;2023-07-22T10:51:41;29.23;;;5.63;;
33403;SDS011;19751;40.274;18.268;2023-07-22T10:54:12;20.15;;;7.35;;
33403;SDS011;19751;40.274;18.268;2023-07-22T10:56:48;21.55;;;5.53;;
33403;SDS011;19751;40.274;18.268;2023-07-22T10:59:13;22.40;;;6.50;;
33403;SDS011;19751;40.274;18.268;2023-07-22T11:01:39;19.08;;;5.30;;
33403;SDS011;19751;40.274;18.268;2023-07-22T11:11:53;22.85;;;6.07;;
33403;SDS011;19751;40.274;18.268;2023-07-22T11:14:49;20.05;;;6.43;;
33403;SDS011;19751;40.274;18.268;2023-07-22T11:17:16;24.85;;;5.65;;
33403;SDS011;19751;40.274;18.268;2023-07-22T11:19:52;17.02;;;5.57;;
33403;SDS011;19751;40.274;18.268;2023-07-22T11:22:17;18.90;;;5.20;;
33403;SDS011;19751;40.274;18.268;2023-07-22T11:24:43;14.93;;;4.95;;
33403;SDS011;19751;40.274;18.268;2023-07-22T11:27:08;21.45;;;5.95;;
33403;SDS011;19751;40.274;18.268;2023-07-22T11:29:35;21.98;;;5.85;;
33403;SDS011;19751;40.274;18.268;2023-07-22T11:32:01;20.23;;;6.45;;
33403;SDS011;19751;40.274;18.268;2023-07-22T11:34:27;23.75;;;6.35;;
33403;SDS011;19751;40.274;18.268;2023-07-22T11:36:53;17.55;;;5.53;;
33403;SDS011;19751;40.274;18.268;2023-07-22T11:39:21;17.05;;;5.20;;
33403;SDS011;19751;40.274;18.268;2023-07-22T11:41:48;23.00;;;6.20;;
33403;SDS011;19751;40.274;18.268;2023-07-22T11:44:15;22.58;;;5.55;;
33403;SDS011;19751;40.274;18.268;2023-07-22T11:46:54;20.27;;;5.32;;
33403;SDS011;19751;40.274;18.268;2023-07-22T11:49:34;21.77;;;5.30;;
33403;SDS011;19751;40.274;18.268;2023-07-22T11:54:34;14.88;;;5.35;;
33403;SDS011;19751;40.274;18.268;2023-07-22T11:57:17;22.60;;;6.00;;
33403;SDS011;19751;40.274;18.268;2023-07-22T12:00:03;20.05;;;6.78;;
33403;SDS011;19751;40.274;18.268;2023-07-22T12:02:35;19.02;;;6.53;;
33403;SDS011;19751;40.274;18.268;2023-07-22T12:05:02;35.58;;;7.97;;
33403;SDS011;19751;40.274;18.268;2023-07-22T12:07:30;20.60;;;6.47;;
33403;SDS011;19751;40.274;18.268;2023-07-22T12:09:59;25.63;;;6.40;;
33403;SDS011;19751;40.274;18.268;2023-07-22T12:12:32;30.88;;;6.65;;
33403;SDS011;19751;40.274;18.268;2023-07-22T12:15:12;15.88;;;5.18;;
33403;SDS011;19751;40.274;18.268;2023-07-22T12:20:41;24.75;;;5.45;;
33403;SDS011;19751;40.274;18.268;2023-07-22T12:23:06;19.38;;;6.15;;
33403;SDS011;19751;40.274;18.268;2023-07-22T12:25:32;23.90;;;6.50;;
33403;SDS011;19751;40.274;18.268;2023-07-22T12:27:57;24.63;;;6.07;;
33403;SDS011;19751;40.274;18.268;2023-07-22T12:30:23;26.95;;;5.43;;
33403;SDS011;19751;40.274;18.268;2023-07-22T12:32:49;26.35;;;5.32;;
33403;SDS011;19751;40.274;18.268;2023-07-22T12:35:14;28.23;;;6.80;;
33403;SDS011;19751;40.274;18.268;2023-07-22T12:37:40;22.15;;;6.45;;
33403;SDS011;19751;40.274;18.268;2023-07-22T12:40:05;25.40;;;6.90;;
33403;SDS011;19751;40.274;18.268;2023-07-22T12:42:33;20.90;;;5.88;;
33403;SDS011;19751;40.274;18.268;2023-07-22T12:44:59;27.75;;;8.30;;
33403;SDS011;19751;40.274;18.268;2023-07-22T12:47:25;19.67;;;5.85;;
33403;SDS011;19751;40.274;18.268;2023-07-22T12:49:51;21.88;;;5.93;;
33403;SDS011;19751;40.274;18.268;2023-07-22T12:52:16;19.98;;;6.05;;
33403;SDS011;19751;40.274;18.268;2023-07-22T12:54:42;21.40;;;5.93;;
33403;SDS011;19751;40.274;18.268;2023-07-22T12:57:07;22.23;;;5.70;;
33403;SDS011;19751;40.274;18.268;2023-07-22T12:59:33;24.77;;;6.15;;
33403;SDS011;19751;40.274;18.268;2023-07-22T13:01:58;20.95;;;6.15;;
33403;SDS011;19751;40.274;18.268;2023-07-22T13:04:24;18.35;;;5.00;;
33403;SDS011;19751;40.274;18.268;2023-07-22T13:06:50;24.65;;;6.95;;
33403;SDS011;19751;40.274;18.268;2023-07-22T13:09:19;19.50;;;6.22;;
33403;SDS011;19751;40.274;18.268;2023-07-22T13:11:45;21.50;;;6.20;;
33403;SDS011;19751;40.274;18.268;2023-07-22T13:14:11;27.98;;;7.30;;
33403;SDS011;19751;40.274;18.268;2023-07-22T13:16:36;23.58;;;7.72;;
33403;SDS011;19751;40.274;18.268;2023-07-22T13:19:02;18.77;;;6.15;;
33403;SDS011;19751;40.274;18.268;2023-07-22T13:21:28;22.92;;;5.72;;
33403;SDS011;19751;40.274;18.268;2023-07-22T13:23:54;27.88;;;5.88;;
33403;SDS011;19751;40.274;18.268;2023-07-22T13:26:20;32.10;;;6.78;;
33403;SDS011;19751;40.274;18.268;2023-07-22T13:28:45;20.17;;;5.85;;
33403;SDS011;19751;40.274;18.268;2023-07-22T13:31:11;23.52;;;6.05;;
33403;SDS011;19751;40.274;18.268;2023-07-22T13:33:36;20.73;;;5.45;;
33403;SDS011;19751;40.274;18.268;2023-07-22T13:36:02;21.95;;;5.68;;
33403;SDS011;19751;40.274;18.268;2023-07-22T13:38:27;21.30;;;6.40;;
33403;SDS011;19751;40.274;18.268;2023-07-22T13:40:53;25.42;;;6.13;;
33403;SDS011;19751;40.274;18.268;2023-07-22T13:43:18;19.05;;;5.60;;
33403;SDS011;19751;40.274;18.268;2023-07-22T13:45:44;24.30;;;6.65;;
33403;SDS011;19751;40.274;18.268;2023-07-22T13:48:09;19.35;;;5.65;;
33403;SDS011;19751;40.274;18.268;2023-07-22T13:50:36;24.23;;;6.13;;
33403;SDS011;19751;40.274;18.268;2023-07-22T13:53:02;24.05;;;6.38;;
33403;SDS011;19751;40.274;18.268;2023-07-22T13:55:28;29.27;;;7.65;;
33403;SDS011;19751;40.274;18.268;2023-07-22T13:57:53;26.65;;;7.05;;
33403;SDS011;19751;40.274;18.268;2023-07-22T14:00:19;19.70;;;5.85;;
33403;SDS011;19751;40.274;18.268;2023-07-22T14:02:44;21.20;;;6.35;;
33403;SDS011;19751;40.274;18.268;2023-07-22T14:05:10;31.02;;;5.75;;
33403;SDS011;19751;40.274;18.268;2023-07-22T14:07:35;28.83;;;6.35;;
33403;SDS011;19751;40.274;18.268;2023-07-22T14:10:02;18.95;;;6.18;;
33403;SDS011;19751;40.274;18.268;2023-07-22T14:12:29;27.10;;;6.47;;
33403;SDS011;19751;40.274;18.268;2023-07-22T14:14:55;23.52;;;8.40;;
33403;SDS011;19751;40.274;18.268;2023-07-22T14:17:20;25.75;;;6.88;;
33403;SDS011;19751;40.274;18.268;2023-07-22T14:19:45;27.98;;;6.07;;
33403;SDS011;19751;40.274;18.268;2023-07-22T14:22:11;30.73;;;6.85;;
33403;SDS011;19751;40.274;18.268;2023-07-22T14:24:36;24.05;;;6.80;;
33403;SDS011;19751;40.274;18.268;2023-07-22T14:27:02;20.13;;;5.57;;
33403;SDS011;19751;40.274;18.268;2023-07-22T14:29:28;15.13;;;5.32;;
33403;SDS011;19751;40.274;18.268;2023-07-22T14:31:55;22.90;;;5.20;;